Time;durP1;ratioP1;P1;durP2;ratioP2;P2;SDS_P1;SDS_P2;PMS_P1;PMS_P2;Temp;Humidity;BMP_temperature;BMP_pressure;BME280_temperature;BME280_humidity;BME280_pressure;Samples;Min_cycle;Max_cycle;Signal;HPM_P1;HPM_P2
2023/09/29 00:00:33;;;;;;;1999.90;999.90;;;19.30;99.90;;;;;;5112277;28;20192;-70
2023/09/29 00:02:59;;;;;;;1999.90;999.90;;;19.30;99.90;;;;;;5112562;28;20755;-71
2023/09/29 00:05:26;;;;;;;1999.90;999.90;;;19.30;99.90;;;;;;5112129;28;20934;-70
2023/09/29 00:07:52;;;;;;;1999.90;999.90;;;19.30;99.90;;;;;;5112471;28;20893;-71
2023/09/29 00:10:20;;;;;;;1999.90;999.90;;;19.20;99.90;;;;;;5112186;28;20986;-70
2023/09/29 00:12:48;;;;;;;1999.90;999.90;;;19.20;99.90;;;;;;5112314;28;20541;-71
2023/09/29 00:15:15;;;;;;;1999.90;999.90;;;19.20;99.90;;;;;;5111952;28;20399;-70
2023/09/29 00:17:41;;;;;;;1999.90;999.90;;;19.30;99.90;;;;;;5112320;28;20396;-70
2023/09/29 00:20:18;;;;;;;1999.90;999.90;;;19.30;99.90;;;;;;5112314;28;20484;-70
2023/09/29 00:22:44;;;;;;;1999.90;999.90;;;19.40;99.90;;;;;;5112426;28;20161;-70
2023/09/29 00:25:09;;;;;;;1999.90;999.90;;;19.40;99.90;;;;;;5112201;28;20457;-70
2023/09/29 00:27:35;;;;;;;1999.90;999.90;;;19.40;99.90;;;;;;5111976;28;20599;-70
2023/09/29 00:30:04;;;;;;;1999.90;999.90;;;19.40;99.90;;;;;;5112006;28;20713;-71
2023/09/29 00:32:30;;;;;;;1999.90;999.90;;;19.40;99.90;;;;;;5112650;28;20733;-71
2023/09/29 00:34:57;;;;;;;1999.90;999.90;;;19.40;99.90;;;;;;5116176;28;20402;-70
2023/09/29 00:37:23;;;;;;;1999.90;999.90;;;19.40;99.90;;;;;;5116065;28;20233;-70
2023/09/29 00:39:48;;;;;;;1999.90;999.90;;;19.40;99.90;;;;;;5116112;28;20428;-70
2023/09/29 00:42:14;;;;;;;1999.90;999.90;;;19.50;99.90;;;;;;5116064;28;20214;-71
2023/09/29 00:44:39;;;;;;;1999.90;999.90;;;19.50;99.90;;;;;;5116009;28;20162;-70
2023/09/29 00:47:06;;;;;;;1999.90;999.90;;;19.50;99.90;;;;;;5115852;28;20172;-70
2023/09/29 00:49:32;;;;;;;1999.90;999.90;;;19.50;99.90;;;;;;5115935;28;20182;-70
2023/09/29 00:52:03;;;;;;;1999.90;999.90;;;19.50;99.90;;;;;;5115846;28;20476;-71
2023/09/29 00:54:31;;;;;;;1999.90;999.90;;;19.40;99.90;;;;;;5115998;28;20400;-71
2023/09/29 00:56:59;;;;;;;1999.90;999.90;;;19.50;99.90;;;;;;5115669;28;20443;-71
2023/09/29 00:59:26;;;;;;;1999.90;999.90;;;19.40;99.90;;;;;;5115938;28;21082;-70
2023/09/29 01:01:52;;;;;;;1999.90;999.90;;;19.40;99.90;;;;;;5115734;28;20403;-71
2023/09/29 01:04:18;;;;;;;1999.90;999.90;;;19.40;99.90;;;;;;5115704;28;20404;-71
2023/09/29 01:06:45;;;;;;;1999.90;999.90;;;19.40;99.90;;;;;;5115570;28;20403;-71
2023/09/29 01:09:11;;;;;;;1999.90;999.90;;;19.40;99.90;;;;;;5115553;28;20419;-70
2023/09/29 01:11:43;;;;;;;1999.90;999.90;;;19.40;99.90;;;;;;5115424;28;20508;-71
2023/09/29 01:14:12;;;;;;;1999.90;999.90;;;19.40;99.90;;;;;;5115495;28;20154;-71
2023/09/29 01:16:41;;;;;;;1999.90;999.90;;;19.40;99.90;;;;;;5115323;28;20388;-71
2023/09/29 01:19:11;;;;;;;1999.90;999.90;;;19.40;99.90;;;;;;5115372;28;20445;-70
2023/09/29 01:21:47;;;;;;;1999.90;999.90;;;19.40;99.90;;;;;;5115479;28;20462;-70
2023/09/29 01:24:13;;;;;;;1999.90;999.90;;;19.50;99.90;;;;;;5115362;28;20403;-70
2023/09/29 01:26:41;;;;;;;1999.90;999.90;;;19.40;99.90;;;;;;5115218;28;20436;-71
2023/09/29 01:29:08;;;;;;;1999.90;999.90;;;19.40;99.90;;;;;;5115183;28;20442;-70
2023/09/29 01:31:35;;;;;;;1999.90;999.90;;;19.30;99.90;;;;;;5115206;28;20540;-70
2023/09/29 01:34:04;;;;;;;1999.90;999.90;;;19.20;99.90;;;;;;5115209;28;20433;-70
2023/09/29 01:36:30;;;;;;;1999.90;999.90;;;19.30;99.90;;;;;;5114847;28;20876;-70
2023/09/29 01:38:56;;;;;;;1999.90;999.90;;;19.30;99.90;;;;;;5115226;28;20490;-70
2023/09/29 01:41:22;;;;;;;1999.90;999.90;;;19.30;99.90;;;;;;5115165;28;20829;-70
2023/09/29 01:43:48;;;;;;;1999.90;999.90;;;19.30;99.90;;;;;;5114460;28;20963;-70
2023/09/29 01:46:15;;;;;;;1999.90;999.90;;;19.30;99.90;;;;;;5114701;28;20173;-70
2023/09/29 01:48:41;;;;;;;1999.90;999.90;;;19.30;99.90;;;;;;5114851;28;20181;-70
2023/09/29 01:51:07;;;;;;;1999.90;999.90;;;19.30;99.90;;;;;;5114644;28;20447;-70
2023/09/29 01:53:33;;;;;;;1999.90;999.90;;;19.30;99.90;;;;;;5114808;28;20937;-70
2023/09/29 01:55:59;;;;;;;1999.90;999.90;;;19.30;99.90;;;;;;5114524;28;20396;-70
2023/09/29 01:58:26;;;;;;;1999.90;999.90;;;19.30;99.90;;;;;;5114755;28;20177;-70
2023/09/29 02:00:52;;;;;;;1999.90;999.90;;;19.20;99.90;;;;;;5114688;28;20800;-68
2023/09/29 02:03:18;;;;;;;1999.90;999.90;;;19.20;99.90;;;;;;5114627;28;20398;-69
2023/09/29 02:05:44;;;;;;;1999.90;999.90;;;19.20;99.90;;;;;;5114653;28;20178;-69
2023/09/29 02:08:10;;;;;;;1999.90;999.90;;;19.30;99.90;;;;;;5114493;28;20416;-69
2023/09/29 02:10:36;;;;;;;1999.90;999.90;;;19.20;99.90;;;;;;5114448;28;20204;-69
2023/09/29 02:13:07;;;;;;;1999.90;999.90;;;19.30;99.90;;;;;;5114519;28;20656;-69
2023/09/29 02:15:34;;;;;;;1999.90;999.90;;;19.30;99.90;;;;;;5114246;28;20396;-69
2023/09/29 02:18:05;;;;;;;1999.90;999.90;;;19.20;99.90;;;;;;5114250;28;20454;-69
2023/09/29 02:20:31;;;;;;;1999.90;999.90;;;19.30;99.90;;;;;;5114340;28;20415;-70
2023/09/29 02:23:02;;;;;;;1999.90;999.90;;;19.30;99.90;;;;;;5114499;28;20412;-70
2023/09/29 02:25:28;;;;;;;1999.90;999.90;;;19.30;99.90;;;;;;5113838;28;20929;-69
2023/09/29 02:27:55;;;;;;;1999.90;999.90;;;19.30;99.90;;;;;;5114162;28;20411;-69
2023/09/29 02:30:21;;;;;;;1999.90;999.90;;;19.30;99.90;;;;;;5113982;28;20430;-70
2023/09/29 02:32:47;;;;;;;1999.90;999.90;;;19.30;99.90;;;;;;5114143;28;20808;-70
2023/09/29 02:35:13;;;;;;;1999.90;999.90;;;19.30;99.90;;;;;;5113681;28;20417;-70
2023/09/29 02:37:39;;;;;;;1999.90;999.90;;;19.30;99.90;;;;;;5113966;28;20395;-69
2023/09/29 02:40:12;;;;;;;1999.90;999.90;;;19.30;99.90;;;;;;5113802;28;20462;-69
2023/09/29 02:42:38;;;;;;;1999.90;999.90;;;19.40;99.90;;;;;;5113757;28;20406;-70
2023/09/29 02:45:05;;;;;;;1999.90;999.90;;;19.40;99.90;;;;;;5113723;28;20498;-69
2023/09/29 02:47:31;;;;;;;1999.90;999.90;;;19.40;99.90;;;;;;5113745;28;20847;-69
2023/09/29 02:49:57;;;;;;;1999.90;999.90;;;19.40;99.90;;;;;;5113793;28;20514;-69
2023/09/29 02:52:27;;;;;;;1999.90;999.90;;;19.40;99.90;;;;;;5113504;28;20443;-69
2023/09/29 02:54:54;;;;;;;1999.90;999.90;;;19.40;99.90;;;;;;5112928;28;20891;-69
2023/09/29 02:57:23;;;;;;;1999.90;999.90;;;19.30;99.90;;;;;;5113144;28;20403;-69
2023/09/29 02:59:49;;;;;;;1999.90;999.90;;;19.30;99.90;;;;;;5113668;28;20423;-69
2023/09/29 03:02:14;;;;;;;1999.90;999.90;;;19.30;99.90;;;;;;5113398;28;20404;-69
2023/09/29 03:04:43;;;;;;;1999.90;999.90;;;19.30;99.90;;;;;;5113614;28;20411;-70
2023/09/29 03:07:09;;;;;;;1999.90;999.90;;;19.30;99.90;;;;;;5113292;28;20174;-70
2023/09/29 03:09:38;;;;;;;1999.90;999.90;;;19.30;99.90;;;;;;5113276;28;20469;-70
2023/09/29 03:12:04;;;;;;;1999.90;999.90;;;19.30;99.90;;;;;;5113075;28;20547;-71
2023/09/29 03:14:30;;;;;;;1999.90;999.90;;;19.30;99.90;;;;;;5113100;28;20971;-70
2023/09/29 03:17:00;;;;;;;1999.90;999.90;;;19.30;99.90;;;;;;5113024;28;20659;-71
2023/09/29 03:19:26;;;;;;;1999.90;999.90;;;19.30;99.90;;;;;;5113008;28;20427;-70
2023/09/29 03:21:52;;;;;;;1999.90;999.90;;;19.40;99.90;;;;;;5113095;28;20478;-71
2023/09/29 03:24:18;;;;;;;1999.90;999.90;;;19.40;99.90;;;;;;5112960;28;20418;-71
2023/09/29 03:26:44;;;;;;;1999.90;999.90;;;19.40;99.90;;;;;;5112786;28;20789;-70
2023/09/29 03:29:10;;;;;;;1999.90;999.90;;;19.40;99.90;;;;;;5112850;28;20200;-71
2023/09/29 03:31:36;;;;;;;1999.90;999.90;;;19.30;99.90;;;;;;5112865;28;20458;-71
2023/09/29 03:34:02;;;;;;;1999.90;999.90;;;19.30;99.90;;;;;;5112868;28;20438;-71
2023/09/29 03:36:29;;;;;;;1999.90;999.90;;;19.30;99.90;;;;;;5112650;28;20161;-71
2023/09/29 03:38:54;;;;;;;1999.90;999.90;;;19.30;99.90;;;;;;5112695;28;20169;-71
2023/09/29 03:41:23;;;;;;;1999.90;999.90;;;19.30;99.90;;;;;;5112716;28;20400;-70
2023/09/29 03:43:50;;;;;;;1999.90;999.90;;;19.20;99.90;;;;;;5112634;28;20697;-70
2023/09/29 03:46:20;;;;;;;1999.90;999.90;;;19.30;99.90;;;;;;5112371;28;20411;-70
2023/09/29 03:48:47;;;;;;;1999.90;999.90;;;19.30;99.90;;;;;;5112633;28;20894;-71
2023/09/29 03:51:23;;;;;;;1999.90;999.90;;;19.20;99.90;;;;;;5112633;28;20533;-71
2023/09/29 03:53:50;;;;;;;1999.90;999.90;;;19.20;99.90;;;;;;5112582;28;20432;-70
2023/09/29 03:56:16;;;;;;;1999.90;999.90;;;19.20;99.90;;;;;;5112230;28;20408;-71
2023/09/29 03:58:43;;;;;;;1999.90;999.90;;;19.20;99.90;;;;;;5112698;28;20406;-70
2023/09/29 04:01:08;;;;;;;1999.90;999.90;;;19.20;99.90;;;;;;5112409;28;20548;-70
2023/09/29 04:03:34;;;;;;;1999.90;999.90;;;19.30;99.90;;;;;;5112460;28;21064;-70
2023/09/29 04:06:00;;;;;;;1999.90;999.90;;;19.30;99.90;;;;;;5112070;28;20183;-71
2023/09/29 04:08:25;;;;;;;1999.90;999.90;;;19.40;99.90;;;;;;5112108;28;20402;-70
2023/09/29 04:10:52;;;;;;;1999.90;999.90;;;19.40;99.90;;;;;;5112108;28;20199;-71
2023/09/29 04:13:18;;;;;;;1999.90;999.90;;;19.40;99.90;;;;;;5112601;28;20167;-70
2023/09/29 04:15:44;;;;;;;1999.90;999.90;;;19.40;99.90;;;;;;5112102;28;20426;-70
2023/09/29 04:18:10;;;;;;;1999.90;999.90;;;19.40;99.90;;;;;;5112405;28;20176;-70
2023/09/29 04:20:35;;;;;;;1999.90;999.90;;;19.40;99.90;;;;;;5112233;28;20272;-70
2023/09/29 04:23:01;;;;;;;1999.90;999.90;;;19.40;99.90;;;;;;5112152;28;20452;-70
2023/09/29 04:25:26;;;;;;;1999.90;999.90;;;19.40;99.90;;;;;;5111973;28;20716;-70
2023/09/29 04:27:52;;;;;;;1999.90;999.90;;;19.40;99.90;;;;;;5112231;28;20164;-71
2023/09/29 04:30:18;;;;;;;1999.90;999.90;;;19.40;99.90;;;;;;5112238;28;20193;-70
2023/09/29 04:32:46;;;;;;;1999.90;999.90;;;19.30;99.90;;;;;;5112054;28;20190;-70
2023/09/29 04:35:12;;;;;;;1999.90;999.90;;;19.30;99.90;;;;;;5112061;28;20174;-70
2023/09/29 04:37:37;;;;;;;1999.90;999.90;;;19.30;99.90;;;;;;5111791;28;20768;-70
2023/09/29 04:40:04;;;;;;;1999.90;999.90;;;19.30;99.90;;;;;;5112075;28;20184;-70
2023/09/29 04:42:30;;;;;;;1999.90;999.90;;;19.30;99.90;;;;;;5112241;28;20165;-70
2023/09/29 04:44:55;;;;;;;1999.90;999.90;;;19.30;99.90;;;;;;5112059;28;20537;-70
2023/09/29 04:47:21;;;;;;;1999.90;999.90;;;19.20;99.90;;;;;;5111785;28;20915;-70
2023/09/29 04:49:46;;;;;;;1999.90;999.90;;;19.20;99.90;;;;;;5109204;28;20202;-70
2023/09/29 04:52:12;;;;;;;1999.90;999.90;;;19.20;99.90;;;;;;5103274;28;20237;-71
2023/09/29 04:54:37;;;;;;;1999.90;999.90;;;19.20;99.90;;;;;;5111869;28;20170;-70
2023/09/29 04:57:03;;;;;;;1999.90;999.90;;;19.10;99.90;;;;;;5111758;28;20659;-70
2023/09/29 04:59:29;;;;;;;1999.90;999.90;;;19.20;99.90;;;;;;5109744;28;20206;-70
2023/09/29 05:01:55;;;;;;;1999.90;999.90;;;19.20;99.90;;;;;;5103452;28;20179;-70
2023/09/29 05:04:20;;;;;;;1999.90;999.90;;;19.20;99.90;;;;;;5107829;28;20988;-70
2023/09/29 05:06:46;;;;;;;1999.90;999.90;;;19.20;99.90;;;;;;5095178;28;20529;-70
2023/09/29 05:09:11;;;;;;;1999.90;999.90;;;19.20;99.90;;;;;;5109182;28;20193;-71
2023/09/29 05:11:37;;;;;;;1999.90;999.90;;;19.20;99.90;;;;;;5111560;28;20243;-70
2023/09/29 05:14:03;;;;;;;1999.90;999.90;;;19.20;99.90;;;;;;5111828;28;20169;-70
2023/09/29 05:16:28;;;;;;;1999.90;999.90;;;19.30;99.90;;;;;;5111491;28;20215;-70
2023/09/29 05:18:54;;;;;;;1999.90;999.90;;;19.30;99.90;;;;;;5112849;28;20211;-70
2023/09/29 05:21:20;;;;;;;1999.90;999.90;;;19.20;99.90;;;;;;5105684;28;20312;-70
2023/09/29 05:23:45;;;;;;;1999.90;999.90;;;19.20;99.90;;;;;;5094933;28;20183;-70
2023/09/29 05:26:11;;;;;;;1999.90;999.90;;;19.20;99.90;;;;;;5094905;28;20407;-70
2023/09/29 05:28:40;;;;;;;1999.90;999.90;;;19.10;99.90;;;;;;5094898;28;20172;-71
2023/09/29 05:31:05;;;;;;;1999.90;999.90;;;19.10;99.90;;;;;;5094835;28;20218;-70
2023/09/29 05:33:31;;;;;;;1999.90;999.90;;;19.10;99.90;;;;;;5094774;28;20402;-70
2023/09/29 05:35:58;;;;;;;1999.90;999.90;;;19.00;99.90;;;;;;5101249;28;20209;-70
2023/09/29 05:38:24;;;;;;;1999.90;999.90;;;19.00;99.90;;;;;;5106805;28;20166;-69
2023/09/29 05:40:51;;;;;;;1999.90;999.90;;;18.90;99.90;;;;;;5114950;28;20480;-69
2023/09/29 05:43:17;;;;;;;1999.90;999.90;;;18.90;99.90;;;;;;5115272;28;20168;-70
2023/09/29 05:45:44;;;;;;;1999.90;999.90;;;19.00;99.90;;;;;;5114736;28;20410;-70
2023/09/29 05:48:10;;;;;;;1999.90;999.90;;;19.00;99.90;;;;;;5114964;28;20406;-69
2023/09/29 05:50:38;;;;;;;1999.90;999.90;;;19.10;99.90;;;;;;5114745;28;20427;-69
2023/09/29 05:53:05;;;;;;;1999.90;999.90;;;19.10;99.90;;;;;;5115041;28;20756;-69
2023/09/29 05:55:31;;;;;;;1999.90;999.90;;;19.20;99.90;;;;;;5114580;28;20390;-69
2023/09/29 05:57:57;;;;;;;1999.90;999.90;;;19.30;99.90;;;;;;5114774;28;20428;-71
2023/09/29 06:00:24;;;;;;;1999.90;999.90;;;19.30;99.90;;;;;;5114589;28;20414;-70
2023/09/29 06:02:51;;;;;;;1999.90;999.90;;;19.40;99.90;;;;;;5114670;28;20914;-71
2023/09/29 06:05:17;;;;;;;1999.90;999.90;;;19.40;99.90;;;;;;5114316;28;20411;-71
2023/09/29 06:07:42;;;;;;;1999.90;999.90;;;19.40;99.90;;;;;;5114718;28;20489;-71
2023/09/29 06:10:10;;;;;;;1999.90;999.90;;;19.40;99.90;;;;;;5114438;28;20425;-71
2023/09/29 06:12:35;;;;;;;1999.90;999.90;;;19.50;99.90;;;;;;5114352;28;20247;-70
2023/09/29 06:15:01;;;;;;;1999.90;999.90;;;19.50;99.90;;;;;;5114419;28;20425;-69
2023/09/29 06:17:27;;;;;;;1999.90;999.90;;;19.50;99.90;;;;;;5114176;28;20176;-71
2023/09/29 06:19:52;;;;;;;1999.90;999.90;;;19.60;99.90;;;;;;5114174;28;20223;-71
2023/09/29 06:22:18;;;;;;;1999.90;999.90;;;19.60;99.90;;;;;;5114171;28;20189;-70
2023/09/29 06:24:44;;;;;;;1999.90;999.90;;;19.60;99.90;;;;;;5114402;28;20272;-70
2023/09/29 06:27:11;;;;;;;1999.90;999.90;;;19.60;99.90;;;;;;5114263;28;20413;-70
2023/09/29 06:29:36;;;;;;;1999.90;999.90;;;19.60;99.90;;;;;;5114037;28;20437;-70
2023/09/29 06:32:02;;;;;;;1999.90;999.90;;;19.70;99.90;;;;;;5113960;28;20901;-70
2023/09/29 06:34:27;;;;;;;1999.90;999.90;;;19.70;99.90;;;;;;5113917;28;20208;-70
2023/09/29 06:36:53;;;;;;;1999.90;999.90;;;19.70;99.90;;;;;;5113716;28;20253;-70
2023/09/29 06:39:19;;;;;;;1999.90;999.90;;;19.70;99.90;;;;;;5113876;28;20219;-70
2023/09/29 06:41:44;;;;;;;1999.90;999.90;;;19.70;99.90;;;;;;5113825;28;20224;-70
2023/09/29 06:44:10;;;;;;;1999.90;999.90;;;19.70;99.90;;;;;;5113819;28;20177;-70
2023/09/29 06:46:35;;;;;;;1999.90;999.90;;;19.80;99.90;;;;;;5113617;28;20166;-70
2023/09/29 06:49:01;;;;;;;1999.90;999.90;;;19.80;99.90;;;;;;5113598;28;20166;-70
2023/09/29 06:51:27;;;;;;;1999.90;999.90;;;19.90;99.90;;;;;;5113596;28;20194;-70
2023/09/29 06:53:52;;;;;;;1999.90;999.90;;;20.00;99.90;;;;;;5113685;28;20252;-70
2023/09/29 06:56:18;;;;;;;1999.90;999.90;;;20.00;99.90;;;;;;5113395;28;20157;-70
2023/09/29 06:58:44;;;;;;;1999.90;999.90;;;20.20;99.90;;;;;;5113530;28;20642;-70
2023/09/29 07:01:10;;;;;;;1999.90;999.90;;;20.30;99.90;;;;;;5113453;28;20209;-70
2023/09/29 07:03:35;;;;;;;1999.90;999.90;;;20.40;99.90;;;;;;5113336;28;20178;-70
2023/09/29 07:06:01;;;;;;;1999.90;999.90;;;20.60;99.90;;;;;;5113336;28;20178;-71
2023/09/29 07:08:29;;;;;;;1999.90;999.90;;;20.80;99.90;;;;;;5113510;28;20184;-70
2023/09/29 07:10:55;;;;;;;1999.90;999.90;;;20.90;99.90;;;;;;5113022;28;20210;-70
2023/09/29 07:13:21;;;;;;;1999.90;999.90;;;21.00;99.90;;;;;;5097429;28;20424;-70
2023/09/29 07:15:47;;;;;;;1999.90;999.90;;;21.10;99.90;;;;;;5094102;28;20771;-70
2023/09/29 07:18:13;;;;;;;1999.90;999.90;;;21.10;99.90;;;;;;5101203;28;20165;-70
2023/09/29 07:20:44;;;;;;;1999.90;999.90;;;21.10;99.90;;;;;;5104407;28;20270;-70
2023/09/29 07:23:10;;;;;;;1999.90;999.90;;;21.10;99.90;;;;;;5113093;28;20524;-70
2023/09/29 07:25:39;;;;;;;1999.90;999.90;;;21.10;99.90;;;;;;5112859;28;20489;-70
2023/09/29 07:28:13;;;;;;;1999.90;999.90;;;21.10;99.90;;;;;;5113029;28;20179;-70
2023/09/29 07:30:38;;;;;;;1999.90;999.90;;;21.10;99.90;;;;;;5099623;28;20848;-70
2023/09/29 07:33:05;;;;;;;1999.90;999.90;;;21.10;99.90;;;;;;5104295;28;20448;-71
2023/09/29 07:35:30;;;;;;;1999.90;999.90;;;21.20;99.90;;;;;;5101225;28;20231;-69
2023/09/29 07:37:56;;;;;;;1999.90;999.90;;;21.30;99.90;;;;;;5107010;28;20406;-71
2023/09/29 07:40:21;;;;;;;1999.90;999.90;;;21.40;99.90;;;;;;5112650;28;20188;-71
2023/09/29 07:42:47;;;;;;;1999.90;999.90;;;21.40;99.90;;;;;;5105507;28;20173;-71
2023/09/29 07:45:13;;;;;;;1999.90;999.90;;;21.50;99.90;;;;;;5104031;28;20184;-70
2023/09/29 07:47:41;;;;;;;1999.90;999.90;;;21.60;99.90;;;;;;5112431;28;20428;-69
2023/09/29 07:50:07;;;;;;;1999.90;999.90;;;21.70;99.90;;;;;;5112776;28;20192;-69
2023/09/29 07:52:37;;;;;;;1999.90;999.90;;;21.70;99.90;;;;;;5112501;28;20972;-70
2023/09/29 07:55:03;;;;;;;1999.90;999.90;;;21.80;99.90;;;;;;5112508;28;20378;-69
2023/09/29 07:57:29;;;;;;;1999.90;999.90;;;21.90;99.90;;;;;;5112363;28;20977;-71
2023/09/29 07:59:54;;;;;;;1999.90;999.90;;;22.00;99.90;;;;;;5112359;28;20422;-71
2023/09/29 08:02:20;;;;;;;1999.90;999.90;;;22.20;99.90;;;;;;5112606;28;20700;-72
2023/09/29 08:04:46;;;;;;;1999.90;999.90;;;22.30;99.90;;;;;;5112345;28;20538;-71
2023/09/29 08:07:13;;;;;;;1999.90;999.90;;;22.30;99.90;;;;;;5112106;28;20181;-70
2023/09/29 08:09:38;;;;;;;1999.90;999.90;;;22.30;99.90;;;;;;5112226;28;20744;-71
2023/09/29 08:12:04;;;;;;;1999.90;999.90;;;22.40;99.90;;;;;;5112119;28;20545;-71
2023/09/29 08:14:33;;;;;;;1999.90;999.90;;;22.40;99.90;;;;;;5112169;28;20574;-71
2023/09/29 08:16:58;;;;;;;1999.90;999.90;;;22.50;99.90;;;;;;5112016;28;20165;-71
2023/09/29 08:19:24;;;;;;;1999.90;999.90;;;22.50;99.90;;;;;;5112344;28;20419;-71
2023/09/29 08:21:50;;;;;;;1999.90;999.90;;;22.50;99.90;;;;;;5112278;28;20171;-71
2023/09/29 08:24:15;;;;;;;1999.90;999.90;;;22.50;99.90;;;;;;5112409;28;20656;-70
2023/09/29 08:26:41;;;;;;;1999.90;999.90;;;22.50;99.90;;;;;;5112080;28;20309;-71
2023/09/29 08:29:09;;;;;;;1999.90;999.90;;;22.50;99.90;;;;;;5112092;28;20281;-71
2023/09/29 08:31:35;;;;;;;1999.90;999.90;;;22.60;99.90;;;;;;5112266;28;20450;-70
2023/09/29 08:34:01;;;;;;;1999.90;999.90;;;22.70;99.90;;;;;;5101667;28;20416;-71
2023/09/29 08:36:27;;;;;;;1999.90;999.90;;;22.70;99.90;;;;;;5103453;28;20193;-71
2023/09/29 08:38:53;;;;;;;1999.90;999.90;;;22.70;99.90;;;;;;5111576;28;20399;-71
2023/09/29 08:41:25;;;;;;;1999.90;999.90;;;22.80;99.90;;;;;;5100725;28;20169;-71
2023/09/29 08:43:51;;;;;;;1999.90;999.90;;;22.90;99.90;;;;;;5111436;28;20891;-70
2023/09/29 08:46:18;;;;;;;1999.90;999.90;;;22.90;99.90;;;;;;5086766;28;20499;-70
2023/09/29 08:48:46;;;;;;;1999.90;999.90;;;23.10;99.90;;;;;;5095537;28;20436;-70
2023/09/29 08:51:13;;;;;;;1999.90;999.90;;;23.20;99.90;;;;;;5086184;28;20974;-69
2023/09/29 08:53:43;;;;;;;1999.90;999.90;;;23.30;99.90;;;;;;5087910;28;20466;-70
2023/09/29 08:56:14;;;;;;;1999.90;999.90;;;23.50;99.90;;;;;;5090615;28;20483;-71
2023/09/29 08:58:40;;;;;;;1999.90;999.90;;;23.80;99.90;;;;;;5090460;28;20416;-72
2023/09/29 09:01:05;;;;;;;1999.90;999.90;;;24.00;99.90;;;;;;5090627;28;20710;-68
2023/09/29 09:03:31;;;;;;;1999.90;999.90;;;24.20;99.90;;;;;;5101406;28;20214;-72
2023/09/29 09:05:58;;;;;;;1999.90;999.90;;;24.40;99.90;;;;;;5110887;28;20610;-69
2023/09/29 09:08:24;;;;;;;1999.90;999.90;;;24.50;99.90;;;;;;5111465;28;20502;-71
2023/09/29 09:10:58;;;;;;;1999.90;999.90;;;24.40;99.90;;;;;;5110618;28;20483;-70
2023/09/29 09:13:26;;;;;;;1999.90;999.90;;;24.30;99.90;;;;;;5111254;28;20414;-68
2023/09/29 09:15:59;;;;;;;1999.90;999.90;;;24.10;99.90;;;;;;5110849;28;20400;-67
2023/09/29 09:18:28;;;;;;;1999.90;999.90;;;24.00;99.90;;;;;;5110882;28;20509;-68
2023/09/29 09:20:54;;;;;;;1999.90;999.90;;;23.90;99.90;;;;;;5101200;28;20436;-69
2023/09/29 09:23:20;;;;;;;1999.90;999.90;;;23.90;99.90;;;;;;5107767;28;20494;-68
2023/09/29 09:25:46;;;;;;;1999.90;999.90;;;23.70;99.90;;;;;;5110560;28;20511;-68
2023/09/29 09:28:18;;;;;;;1999.90;999.90;;;23.50;99.90;;;;;;5111398;28;20250;-69
2023/09/29 09:30:46;;;;;;;1999.90;999.90;;;23.40;99.90;;;;;;5110726;28;20419;-68
2023/09/29 09:33:21;;;;;;;1999.90;999.90;;;23.10;99.90;;;;;;5110623;28;20422;-68
2023/09/29 09:35:50;;;;;;;1999.90;999.90;;;22.90;99.90;;;;;;5110397;28;20442;-69
2023/09/29 09:38:16;;;;;;;1999.90;999.90;;;22.80;99.90;;;;;;5110489;28;20451;-68
2023/09/29 09:40:44;;;;;;;1999.90;999.90;;;22.70;99.90;;;;;;5111214;28;20435;-68
2023/09/29 09:43:10;;;;;;;1999.90;999.90;;;22.80;99.90;;;;;;5110585;28;20711;-68
2023/09/29 09:45:42;;;;;;;1999.90;999.90;;;22.90;99.90;;;;;;5110106;28;20919;-68
2023/09/29 09:48:09;;;;;;;1999.90;999.90;;;22.90;99.90;;;;;;5110253;28;20461;-69
2023/09/29 09:50:38;;;;;;;1999.90;999.90;;;22.90;99.90;;;;;;5110606;28;20822;-69
2023/09/29 09:53:07;;;;;;;1999.90;999.90;;;22.90;99.90;;;;;;5110205;28;20446;-68
2023/09/29 09:55:39;;;;;;;1999.90;999.90;;;22.70;99.90;;;;;;5092930;28;20466;-68
2023/09/29 09:58:11;;;;;;;1999.90;999.90;;;22.40;99.90;;;;;;5092297;28;20443;-68
2023/09/29 10:00:41;;;;;;;1999.90;999.90;;;22.40;99.90;;;;;;5109657;28;20427;-70
2023/09/29 10:03:15;;;;;;;1999.90;999.90;;;22.40;99.90;;;;;;5105759;28;20489;-69
2023/09/29 10:05:46;;;;;;;1999.90;999.90;;;22.60;99.90;;;;;;5090168;28;20392;-69
2023/09/29 10:08:32;;;;;;;1999.90;999.90;;;22.80;99.90;;;;;;5089643;28;20416;-70
2023/09/29 10:11:10;;;;;;;1999.90;999.90;;;22.80;99.90;;;;;;5089266;28;20450;-71
2023/09/29 10:13:37;;;;;;;1999.90;999.90;;;23.00;99.90;;;;;;5099967;28;20985;-71
2023/09/29 10:16:05;;;;;;;1999.90;999.90;;;23.10;99.90;;;;;;5109600;28;20408;-70
2023/09/29 10:18:35;;;;;;;1999.90;999.90;;;23.20;99.90;;;;;;5108790;28;20925;-72
2023/09/29 10:21:09;;;;;;;1999.90;999.90;;;23.30;99.90;;;;;;5109715;28;20417;-70
2023/09/29 10:23:50;;;;;;;1999.90;999.90;;;23.60;99.90;;;;;;5109836;28;20828;-70
2023/09/29 10:26:17;;;;;;;1999.90;999.90;;;23.70;99.90;;;;;;5109216;28;20457;-71
2023/09/29 10:28:45;;;;;;;1999.90;999.90;;;23.70;99.90;;;;;;5109392;28;20398;-71
2023/09/29 10:31:18;;;;;;;1999.90;999.90;;;23.70;99.90;;;;;;5102930;28;20439;-71
2023/09/29 10:33:44;;;;;;;1999.90;999.90;;;23.70;99.90;;;;;;5101248;28;20379;-70
2023/09/29 10:36:11;;;;;;;1999.90;999.90;;;23.90;99.90;;;;;;5109060;28;20400;-71
2023/09/29 10:38:40;;;;;;;1999.90;999.90;;;23.90;99.90;;;;;;5109257;28;20418;-71
2023/09/29 10:41:06;;;;;;;1999.90;999.90;;;23.90;99.90;;;;;;5109743;28;20428;-70
2023/09/29 10:43:34;;;;;;;1999.90;999.90;;;23.90;99.90;;;;;;5109093;28;20408;-70
2023/09/29 10:46:07;;;;;;;1999.90;999.90;;;23.80;99.90;;;;;;5108921;28;20647;-70
2023/09/29 10:48:33;;;;;;;1999.90;999.90;;;23.80;99.90;;;;;;5108747;28;20417;-70
2023/09/29 10:50:59;;;;;;;1999.90;999.90;;;23.80;99.90;;;;;;5109161;28;20430;-70
2023/09/29 10:53:24;;;;;;;1999.90;999.90;;;23.90;99.90;;;;;;5108879;28;20173;-70
2023/09/29 10:55:54;;;;;;;1999.90;999.90;;;24.00;99.90;;;;;;5108684;28;20204;-70
2023/09/29 10:58:21;;;;;;;1999.90;999.90;;;24.10;99.90;;;;;;5109560;28;20173;-70
2023/09/29 11:00:51;;;;;;;1999.90;999.90;;;24.30;99.90;;;;;;5108688;28;20792;-70
2023/09/29 11:03:21;;;;;;;1999.90;999.90;;;24.60;99.90;;;;;;5108682;28;20483;-70
2023/09/29 11:05:49;;;;;;;1999.90;999.90;;;24.80;99.90;;;;;;5108768;28;20390;-70
2023/09/29 11:08:21;;;;;;;1999.90;999.90;;;24.70;99.90;;;;;;5109566;28;20548;-70
2023/09/29 11:11:04;;;;;;;1999.90;999.90;;;24.70;99.90;;;;;;5108861;28;20550;-69
2023/09/29 11:13:31;;;;;;;1999.90;999.90;;;24.70;99.90;;;;;;5109163;28;20389;-70
2023/09/29 11:15:58;;;;;;;1999.90;999.90;;;24.50;99.90;;;;;;5108323;28;20403;-70
2023/09/29 11:18:34;;;;;;;1999.90;999.90;;;24.40;99.90;;;;;;5108393;28;20411;-70
2023/09/29 11:21:20;;;;;;;1999.90;999.90;;;24.30;99.90;;;;;;5108284;28;20398;-70
2023/09/29 11:23:48;;;;;;;1999.90;999.90;;;24.20;99.90;;;;;;5108930;28;20443;-70
2023/09/29 11:26:15;;;;;;;1999.90;999.90;;;24.10;99.90;;;;;;5108115;28;20402;-70
2023/09/29 11:28:47;;;;;;;1999.90;999.90;;;24.10;99.90;;;;;;5108511;28;20470;-70
2023/09/29 11:31:15;;;;;;;1999.90;999.90;;;24.20;99.90;;;;;;5108275;28;20426;-70
2023/09/29 11:33:44;;;;;;;1999.90;999.90;;;24.20;99.90;;;;;;5108668;28;20407;-70
2023/09/29 11:36:27;;;;;;;1999.90;999.90;;;24.30;99.90;;;;;;5108153;28;20466;-70
2023/09/29 11:38:52;;;;;;;1999.90;999.90;;;24.60;99.90;;;;;;5108588;28;20407;-70
2023/09/29 11:41:18;;;;;;;1999.90;999.90;;;24.90;99.90;;;;;;5108213;28;20415;-70
2023/09/29 11:43:45;;;;;;;1999.90;999.90;;;25.00;99.90;;;;;;5108640;28;20177;-70
2023/09/29 11:46:13;;;;;;;1999.90;999.90;;;25.20;99.90;;;;;;5108224;28;20393;-70
2023/09/29 11:48:39;;;;;;;1999.90;999.90;;;25.40;99.90;;;;;;5107816;28;20415;-70
2023/09/29 11:51:08;;;;;;;1999.90;999.90;;;25.40;99.90;;;;;;5107475;28;20412;-70
2023/09/29 11:53:34;;;;;;;1999.90;999.90;;;25.30;99.90;;;;;;5108532;28;20212;-70
2023/09/29 11:56:00;;;;;;;1999.90;999.90;;;25.20;99.90;;;;;;5107620;28;20782;-70
2023/09/29 11:58:26;;;;;;;1999.90;999.90;;;25.20;99.90;;;;;;5107866;28;20196;-70